sensor_id;sensor_type;location;lat;lon;timestamp;temperature;humidity
68556;HTU21D;55544;51.032;5.866;2023-11-19T00:01:57;13.83;91.72
68556;HTU21D;55544;51.032;5.866;2023-11-19T00:04:23;13.89;91.60
68556;HTU21D;55544;51.032;5.866;2023-11-19T00:06:48;13.90;91.66
68556;HTU21D;55544;51.032;5.866;2023-11-19T00:09:14;13.90;91.83
68556;HTU21D;55544;51.032;5.866;2023-11-19T00:11:42;13.88;91.82
68556;HTU21D;55544;51.032;5.866;2023-11-19T00:14:07;13.84;92.28
68556;HTU21D;55544;51.032;5.866;2023-11-19T00:16:34;13.92;91.87
68556;HTU21D;55544;51.032;5.866;2023-11-19T00:19:00;13.95;91.81
68556;HTU21D;55544;51.032;5.866;2023-11-19T00:21:26;13.91;91.72
68556;HTU21D;55544;51.032;5.866;2023-11-19T00:23:54;13.85;92.09
68556;HTU21D;55544;51.032;5.866;2023-11-19T00:26:19;13.85;91.98
68556;HTU21D;55544;51.032;5.866;2023-11-19T00:28:49;13.86;92.47
68556;HTU21D;55544;51.032;5.866;2023-11-19T00:31:15;13.90;92.24
68556;HTU21D;55544;51.032;5.866;2023-11-19T00:33:41;13.90;92.58
68556;HTU21D;55544;51.032;5.866;2023-11-19T00:36:07;13.91;92.51
68556;HTU21D;55544;51.032;5.866;2023-11-19T00:38:32;13.93;92.38
68556;HTU21D;55544;51.032;5.866;2023-11-19T00:40:58;13.90;92.27
68556;HTU21D;55544;51.032;5.866;2023-11-19T00:43:24;13.97;92.01
68556;HTU21D;55544;51.032;5.866;2023-11-19T00:45:50;14.03;91.70
68556;HTU21D;55544;51.032;5.866;2023-11-19T00:48:16;14.00;91.67
68556;HTU21D;55544;51.032;5.866;2023-11-19T00:50:42;13.99;91.94
68556;HTU21D;55544;51.032;5.866;2023-11-19T00:53:10;13.99;92.05
68556;HTU21D;55544;51.032;5.866;2023-11-19T00:55:36;13.97;92.43
68556;HTU21D;55544;51.032;5.866;2023-11-19T00:58:01;14.00;91.92
68556;HTU21D;55544;51.032;5.866;2023-11-19T01:00:28;14.01;92.10
68556;HTU21D;55544;51.032;5.866;2023-11-19T01:02:54;13.92;92.45
68556;HTU21D;55544;51.032;5.866;2023-11-19T01:05:20;13.93;92.69
68556;HTU21D;55544;51.032;5.866;2023-11-19T01:07:49;14.00;92.35
68556;HTU21D;55544;51.032;5.866;2023-11-19T01:10:15;14.04;92.11
68556;HTU21D;55544;51.032;5.866;2023-11-19T01:12:42;14.04;92.14
68556;HTU21D;55544;51.032;5.866;2023-11-19T01:15:08;14.11;91.92
68556;HTU21D;55544;51.032;5.866;2023-11-19T01:17:34;14.09;91.93
68556;HTU21D;55544;51.032;5.866;2023-11-19T01:19:59;14.09;91.97
68556;HTU21D;55544;51.032;5.866;2023-11-19T01:22:25;14.07;92.01
68556;HTU21D;55544;51.032;5.866;2023-11-19T01:24:51;14.14;91.89
68556;HTU21D;55544;51.032;5.866;2023-11-19T01:27:17;14.08;92.37
68556;HTU21D;55544;51.032;5.866;2023-11-19T01:29:43;14.12;92.24
68556;HTU21D;55544;51.032;5.866;2023-11-19T01:32:09;14.20;91.88
68556;HTU21D;55544;51.032;5.866;2023-11-19T01:34:35;14.20;91.93
68556;HTU21D;55544;51.032;5.866;2023-11-19T01:37:01;14.14;92.23
68556;HTU21D;55544;51.032;5.866;2023-11-19T01:39:27;14.25;91.80
68556;HTU21D;55544;51.032;5.866;2023-11-19T01:41:52;14.28;91.80
68556;HTU21D;55544;51.032;5.866;2023-11-19T01:44:19;14.27;0.00
68556;HTU21D;55544;51.032;5.866;2023-11-19T01:46:46;14.30;91.77
68556;HTU21D;55544;51.032;5.866;2023-11-19T01:49:18;14.30;91.58
68556;HTU21D;55544;51.032;5.866;2023-11-19T01:51:47;14.35;91.63
68556;HTU21D;55544;51.032;5.866;2023-11-19T01:54:14;14.35;91.54
68556;HTU21D;55544;51.032;5.866;2023-11-19T01:56:41;14.36;91.45
68556;HTU21D;55544;51.032;5.866;2023-11-19T01:59:09;14.35;91.56
68556;HTU21D;55544;51.032;5.866;2023-11-19T02:01:37;14.39;91.28
68556;HTU21D;55544;51.032;5.866;2023-11-19T02:04:06;14.40;91.16
68556;HTU21D;55544;51.032;5.866;2023-11-19T02:06:34;14.37;91.11
68556;HTU21D;55544;51.032;5.866;2023-11-19T02:09:04;14.39;90.92
68556;HTU21D;55544;51.032;5.866;2023-11-19T02:11:34;14.39;90.91
68556;HTU21D;55544;51.032;5.866;2023-11-19T02:14:00;14.35;90.62
68556;HTU21D;55544;51.032;5.866;2023-11-19T02:16:27;14.40;90.76
68556;HTU21D;55544;51.032;5.866;2023-11-19T02:18:53;14.43;90.40
68556;HTU21D;55544;51.032;5.866;2023-11-19T02:21:19;14.38;90.36
68556;HTU21D;55544;51.032;5.866;2023-11-19T02:23:45;14.38;90.53
68556;HTU21D;55544;51.032;5.866;2023-11-19T02:28:43;14.42;90.08
68556;HTU21D;55544;51.032;5.866;2023-11-19T02:31:10;14.36;89.87
68556;HTU21D;55544;51.032;5.866;2023-11-19T02:33:38;14.39;89.83
68556;HTU21D;55544;51.032;5.866;2023-11-19T02:36:08;14.42;89.47
68556;HTU21D;55544;51.032;5.866;2023-11-19T02:38:34;14.45;89.02
68556;HTU21D;55544;51.032;5.866;2023-11-19T02:41:04;14.38;89.24
68556;HTU21D;55544;51.032;5.866;2023-11-19T02:43:32;14.37;89.25
68556;HTU21D;55544;51.032;5.866;2023-11-19T02:46:05;14.40;88.20
68556;HTU21D;55544;51.032;5.866;2023-11-19T02:48:34;14.36;87.96
68556;HTU21D;55544;51.032;5.866;2023-11-19T02:51:01;14.40;87.31
68556;HTU21D;55544;51.032;5.866;2023-11-19T02:53:32;14.35;87.40
68556;HTU21D;55544;51.032;5.866;2023-11-19T02:55:57;14.27;86.62
68556;HTU21D;55544;51.032;5.866;2023-11-19T02:58:55;14.30;86.92
68556;HTU21D;55544;51.032;5.866;2023-11-19T03:01:22;14.25;86.81
68556;HTU21D;55544;51.032;5.866;2023-11-19T03:04:00;14.24;87.50
68556;HTU21D;55544;51.032;5.866;2023-11-19T03:06:26;14.23;87.52
68556;HTU21D;55544;51.032;5.866;2023-11-19T03:08:55;14.26;86.84
68556;HTU21D;55544;51.032;5.866;2023-11-19T03:11:21;14.35;87.41
68556;HTU21D;55544;51.032;5.866;2023-11-19T03:13:47;14.32;87.41
68556;HTU21D;55544;51.032;5.866;2023-11-19T03:16:13;14.34;87.10
68556;HTU21D;55544;51.032;5.866;2023-11-19T03:18:39;14.35;87.38
68556;HTU21D;55544;51.032;5.866;2023-11-19T03:21:08;14.29;87.65
68556;HTU21D;55544;51.032;5.866;2023-11-19T03:23:34;14.25;87.94
68556;HTU21D;55544;51.032;5.866;2023-11-19T03:26:00;14.28;87.57
68556;HTU21D;55544;51.032;5.866;2023-11-19T03:28:29;14.22;87.69
68556;HTU21D;55544;51.032;5.866;2023-11-19T03:30:54;14.20;87.53
68556;HTU21D;55544;51.032;5.866;2023-11-19T03:33:21;14.15;87.77
68556;HTU21D;55544;51.032;5.866;2023-11-19T03:35:46;14.12;87.73
68556;HTU21D;55544;51.032;5.866;2023-11-19T03:38:12;14.10;87.79
68556;HTU21D;55544;51.032;5.866;2023-11-19T03:40:40;14.08;87.64
68556;HTU21D;55544;51.032;5.866;2023-11-19T03:43:06;14.05;87.92
68556;HTU21D;55544;51.032;5.866;2023-11-19T03:45:32;14.06;87.77
68556;HTU21D;55544;51.032;5.866;2023-11-19T03:47:57;14.04;87.85
68556;HTU21D;55544;51.032;5.866;2023-11-19T03:50:23;14.08;87.62
68556;HTU21D;55544;51.032;5.866;2023-11-19T03:52:49;14.04;87.21
68556;HTU21D;55544;51.032;5.866;2023-11-19T03:55:15;14.04;87.34
68556;HTU21D;55544;51.032;5.866;2023-11-19T03:57:41;14.08;87.09
68556;HTU21D;55544;51.032;5.866;2023-11-19T04:00:07;14.06;86.93
68556;HTU21D;55544;51.032;5.866;2023-11-19T04:02:40;14.05;86.61
68556;HTU21D;55544;51.032;5.866;2023-11-19T04:05:07;13.96;86.63
68556;HTU21D;55544;51.032;5.866;2023-11-19T04:07:33;13.97;86.45
68556;HTU21D;55544;51.032;5.866;2023-11-19T04:09:59;13.91;86.81
68556;HTU21D;55544;51.032;5.866;2023-11-19T04:12:25;13.97;86.51
68556;HTU21D;55544;51.032;5.866;2023-11-19T04:14:51;13.91;86.44
68556;HTU21D;55544;51.032;5.866;2023-11-19T04:17:18;13.88;86.67
68556;HTU21D;55544;51.032;5.866;2023-11-19T04:19:44;13.84;86.98
68556;HTU21D;55544;51.032;5.866;2023-11-19T04:22:09;13.88;87.12
68556;HTU21D;55544;51.032;5.866;2023-11-19T04:24:36;13.96;86.89
68556;HTU21D;55544;51.032;5.866;2023-11-19T04:27:04;13.91;86.86
68556;HTU21D;55544;51.032;5.866;2023-11-19T04:29:32;13.89;86.80
68556;HTU21D;55544;51.032;5.866;2023-11-19T04:31:58;13.88;86.42
68556;HTU21D;55544;51.032;5.866;2023-11-19T04:34:24;13.84;86.38
68556;HTU21D;55544;51.032;5.866;2023-11-19T04:36:51;13.78;86.46
68556;HTU21D;55544;51.032;5.866;2023-11-19T04:39:17;13.81;85.98
68556;HTU21D;55544;51.032;5.866;2023-11-19T04:41:51;13.67;86.80
68556;HTU21D;55544;51.032;5.866;2023-11-19T04:44:20;13.78;85.99
68556;HTU21D;55544;51.032;5.866;2023-11-19T04:46:46;13.68;86.06
68556;HTU21D;55544;51.032;5.866;2023-11-19T04:49:13;13.66;86.08
68556;HTU21D;55544;51.032;5.866;2023-11-19T04:51:44;13.63;86.06
68556;HTU21D;55544;51.032;5.866;2023-11-19T04:54:12;13.66;85.90
68556;HTU21D;55544;51.032;5.866;2023-11-19T04:56:38;13.66;85.68
68556;HTU21D;55544;51.032;5.866;2023-11-19T04:59:05;13.65;85.87
68556;HTU21D;55544;51.032;5.866;2023-11-19T05:01:32;13.69;85.67
68556;HTU21D;55544;51.032;5.866;2023-11-19T05:03:58;13.68;85.71
68556;HTU21D;55544;51.032;5.866;2023-11-19T05:06:31;13.69;85.67
68556;HTU21D;55544;51.032;5.866;2023-11-19T05:08:59;13.73;85.27
68556;HTU21D;55544;51.032;5.866;2023-11-19T05:11:30;13.64;85.67
68556;HTU21D;55544;51.032;5.866;2023-11-19T05:13:56;13.61;85.86
68556;HTU21D;55544;51.032;5.866;2023-11-19T05:16:22;13.53;85.60
68556;HTU21D;55544;51.032;5.866;2023-11-19T05:18:48;13.60;85.36
68556;HTU21D;55544;51.032;5.866;2023-11-19T05:21:14;13.64;84.58
68556;HTU21D;55544;51.032;5.866;2023-11-19T05:23:39;13.61;84.56
68556;HTU21D;55544;51.032;5.866;2023-11-19T05:26:07;13.67;84.00
68556;HTU21D;55544;51.032;5.866;2023-11-19T05:28:33;13.59;84.31
68556;HTU21D;55544;51.032;5.866;2023-11-19T05:31:00;13.61;84.20
68556;HTU21D;55544;51.032;5.866;2023-11-19T05:33:25;13.52;84.63
68556;HTU21D;55544;51.032;5.866;2023-11-19T05:35:51;13.63;84.19
68556;HTU21D;55544;51.032;5.866;2023-11-19T05:38:17;13.62;83.88
68556;HTU21D;55544;51.032;5.866;2023-11-19T05:40:43;13.55;83.88
68556;HTU21D;55544;51.032;5.866;2023-11-19T05:43:09;13.59;83.77
68556;HTU21D;55544;51.032;5.866;2023-11-19T05:45:34;13.56;83.68
68556;HTU21D;55544;51.032;5.866;2023-11-19T05:48:00;13.61;83.03
68556;HTU21D;55544;51.032;5.866;2023-11-19T05:50:26;13.49;83.03
68556;HTU21D;55544;51.032;5.866;2023-11-19T05:52:52;13.49;83.00
68556;HTU21D;55544;51.032;5.866;2023-11-19T05:55:19;13.52;82.93
68556;HTU21D;55544;51.032;5.866;2023-11-19T05:57:45;13.44;82.57
68556;HTU21D;55544;51.032;5.866;2023-11-19T06:00:11;13.48;82.78
68556;HTU21D;55544;51.032;5.866;2023-11-19T06:02:38;13.45;82.51
68556;HTU21D;55544;51.032;5.866;2023-11-19T06:05:05;13.44;81.59
68556;HTU21D;55544;51.032;5.866;2023-11-19T06:07:35;13.45;82.13
68556;HTU21D;55544;51.032;5.866;2023-11-19T06:10:02;13.39;81.85
68556;HTU21D;55544;51.032;5.866;2023-11-19T06:12:30;13.37;81.73
68556;HTU21D;55544;51.032;5.866;2023-11-19T06:14:57;13.44;81.83
68556;HTU21D;55544;51.032;5.866;2023-11-19T06:17:23;13.36;81.60
68556;HTU21D;55544;51.032;5.866;2023-11-19T06:19:48;13.43;81.42
68556;HTU21D;55544;51.032;5.866;2023-11-19T06:22:14;13.37;81.65
68556;HTU21D;55544;51.032;5.866;2023-11-19T06:24:40;13.33;81.63
68556;HTU21D;55544;51.032;5.866;2023-11-19T06:27:05;13.30;81.33
68556;HTU21D;55544;51.032;5.866;2023-11-19T06:29:31;13.29;81.91
68556;HTU21D;55544;51.032;5.866;2023-11-19T06:31:58;13.22;81.77
68556;HTU21D;55544;51.032;5.866;2023-11-19T06:34:24;13.26;81.60
68556;HTU21D;55544;51.032;5.866;2023-11-19T06:36:49;13.24;81.72
68556;HTU21D;55544;51.032;5.866;2023-11-19T06:39:15;13.15;81.88
68556;HTU21D;55544;51.032;5.866;2023-11-19T06:41:45;13.15;81.98
68556;HTU21D;55544;51.032;5.866;2023-11-19T06:44:11;13.19;82.01
68556;HTU21D;55544;51.032;5.866;2023-11-19T06:46:36;13.14;81.81
68556;HTU21D;55544;51.032;5.866;2023-11-19T06:49:02;13.09;82.43
68556;HTU21D;55544;51.032;5.866;2023-11-19T06:51:28;13.07;82.23
68556;HTU21D;55544;51.032;5.866;2023-11-19T06:53:55;13.05;82.39
68556;HTU21D;55544;51.032;5.866;2023-11-19T06:56:22;13.01;82.78
68556;HTU21D;55544;51.032;5.866;2023-11-19T06:58:48;13.02;82.91
68556;HTU21D;55544;51.032;5.866;2023-11-19T07:01:15;13.01;83.04
68556;HTU21D;55544;51.032;5.866;2023-11-19T07:03:41;12.97;82.99
68556;HTU21D;55544;51.032;5.866;2023-11-19T07:06:07;12.92;83.21
68556;HTU21D;55544;51.032;5.866;2023-11-19T07:08:33;12.96;83.13
68556;HTU21D;55544;51.032;5.866;2023-11-19T07:10:58;12.90;83.55
68556;HTU21D;55544;51.032;5.866;2023-11-19T07:13:24;12.88;83.22
68556;HTU21D;55544;51.032;5.866;2023-11-19T07:15:49;12.86;83.36
68556;HTU21D;55544;51.032;5.866;2023-11-19T07:18:15;12.89;83.43
68556;HTU21D;55544;51.032;5.866;2023-11-19T07:20:41;12.88;83.27
68556;HTU21D;55544;51.032;5.866;2023-11-19T07:23:07;12.85;83.23
68556;HTU21D;55544;51.032;5.866;2023-11-19T07:25:34;12.86;83.28
68556;HTU21D;55544;51.032;5.866;2023-11-19T07:28:01;12.84;83.25
68556;HTU21D;55544;51.032;5.866;2023-11-19T07:30:30;12.88;83.00
68556;HTU21D;55544;51.032;5.866;2023-11-19T07:32:55;12.93;83.20
68556;HTU21D;55544;51.032;5.866;2023-11-19T07:35:21;12.94;83.15
68556;HTU21D;55544;51.032;5.866;2023-11-19T07:37:47;13.00;83.13
68556;HTU21D;55544;51.032;5.866;2023-11-19T07:40:13;13.01;82.48
68556;HTU21D;55544;51.032;5.866;2023-11-19T07:42:39;13.02;83.00
68556;HTU21D;55544;51.032;5.866;2023-11-19T07:45:05;13.04;83.01
68556;HTU21D;55544;51.032;5.866;2023-11-19T07:47:32;13.07;82.56
68556;HTU21D;55544;51.032;5.866;2023-11-19T07:49:58;13.11;82.58
68556;HTU21D;55544;51.032;5.866;2023-11-19T07:52:24;13.21;82.13
68556;HTU21D;55544;51.032;5.866;2023-11-19T07:54:49;13.29;81.63
68556;HTU21D;55544;51.032;5.866;2023-11-19T07:57:15;13.33;81.78
68556;HTU21D;55544;51.032;5.866;2023-11-19T07:59:41;13.34;81.66
68556;HTU21D;55544;51.032;5.866;2023-11-19T08:02:06;13.88;79.99
68556;HTU21D;55544;51.032;5.866;2023-11-19T08:04:32;14.63;77.24
68556;HTU21D;55544;51.032;5.866;2023-11-19T08:06:59;15.09;74.96
68556;HTU21D;55544;51.032;5.866;2023-11-19T08:09:24;15.32;74.89
68556;HTU21D;55544;51.032;5.866;2023-11-19T08:11:50;15.45;74.13
68556;HTU21D;55544;51.032;5.866;2023-11-19T08:14:17;15.75;72.79
68556;HTU21D;55544;51.032;5.866;2023-11-19T08:16:42;15.77;71.95
68556;HTU21D;55544;51.032;5.866;2023-11-19T08:19:08;15.56;71.96
68556;HTU21D;55544;51.032;5.866;2023-11-19T08:21:34;14.86;73.25
68556;HTU21D;55544;51.032;5.866;2023-11-19T08:23:59;14.43;75.35
68556;HTU21D;55544;51.032;5.866;2023-11-19T08:26:25;14.21;76.33
68556;HTU21D;55544;51.032;5.866;2023-11-19T08:28:51;14.17;76.68
68556;HTU21D;55544;51.032;5.866;2023-11-19T08:31:17;14.09;76.50
68556;HTU21D;55544;51.032;5.866;2023-11-19T08:33:43;14.07;76.95
68556;HTU21D;55544;51.032;5.866;2023-11-19T08:36:14;14.13;76.61
68556;HTU21D;55544;51.032;5.866;2023-11-19T08:38:40;14.08;76.66
68556;HTU21D;55544;51.032;5.866;2023-11-19T08:41:06;13.99;77.18
68556;HTU21D;55544;51.032;5.866;2023-11-19T08:43:31;13.97;77.00
68556;HTU21D;55544;51.032;5.866;2023-11-19T08:45:57;14.00;77.18
68556;HTU21D;55544;51.032;5.866;2023-11-19T08:48:23;13.98;76.78
68556;HTU21D;55544;51.032;5.866;2023-11-19T08:50:49;14.03;77.06
68556;HTU21D;55544;51.032;5.866;2023-11-19T08:53:15;14.14;76.89
68556;HTU21D;55544;51.032;5.866;2023-11-19T08:55:41;14.19;76.41
68556;HTU21D;55544;51.032;5.866;2023-11-19T08:58:06;14.19;76.64
68556;HTU21D;55544;51.032;5.866;2023-11-19T09:00:32;14.12;76.09
68556;HTU21D;55544;51.032;5.866;2023-11-19T09:02:58;14.15;75.81
68556;HTU21D;55544;51.032;5.866;2023-11-19T09:05:23;14.14;75.89
68556;HTU21D;55544;51.032;5.866;2023-11-19T09:07:49;14.07;76.50
68556;HTU21D;55544;51.032;5.866;2023-11-19T09:10:15;14.11;76.39
68556;HTU21D;55544;51.032;5.866;2023-11-19T09:12:41;14.17;76.28
68556;HTU21D;55544;51.032;5.866;2023-11-19T09:15:07;14.07;76.33
68556;HTU21D;55544;51.032;5.866;2023-11-19T09:17:36;14.17;76.02
68556;HTU21D;55544;51.032;5.866;2023-11-19T09:20:01;14.26;75.51
68556;HTU21D;55544;51.032;5.866;2023-11-19T09:22:27;14.27;75.91
68556;HTU21D;55544;51.032;5.866;2023-11-19T09:24:53;14.32;75.89
68556;HTU21D;55544;51.032;5.866;2023-11-19T09:27:19;14.28;75.67
68556;HTU21D;55544;51.032;5.866;2023-11-19T09:29:44;14.30;76.23
68556;HTU21D;55544;51.032;5.866;2023-11-19T09:32:12;14.33;75.36
68556;HTU21D;55544;51.032;5.866;2023-11-19T09:34:37;14.34;75.42
68556;HTU21D;55544;51.032;5.866;2023-11-19T09:37:03;14.29;75.91
68556;HTU21D;55544;51.032;5.866;2023-11-19T09:39:29;14.38;76.17
68556;HTU21D;55544;51.032;5.866;2023-11-19T09:41:54;14.41;75.79
68556;HTU21D;55544;51.032;5.866;2023-11-19T09:44:20;14.39;75.30
68556;HTU21D;55544;51.032;5.866;2023-11-19T09:46:46;14.35;74.59
68556;HTU21D;55544;51.032;5.866;2023-11-19T09:49:19;14.29;75.39
68556;HTU21D;55544;51.032;5.866;2023-11-19T09:51:46;14.22;75.41
68556;HTU21D;55544;51.032;5.866;2023-11-19T09:54:12;14.25;75.28
68556;HTU21D;55544;51.032;5.866;2023-11-19T09:56:38;14.13;75.57
68556;HTU21D;55544;51.032;5.866;2023-11-19T09:59:05;14.17;75.54
68556;HTU21D;55544;51.032;5.866;2023-11-19T10:01:31;14.19;75.25
68556;HTU21D;55544;51.032;5.866;2023-11-19T10:03:57;14.23;75.49
68556;HTU21D;55544;51.032;5.866;2023-11-19T10:06:25;14.33;76.12
68556;HTU21D;55544;51.032;5.866;2023-11-19T10:08:52;14.51;75.61
68556;HTU21D;55544;51.032;5.866;2023-11-19T10:11:18;14.55;73.62
68556;HTU21D;55544;51.032;5.866;2023-11-19T10:13:44;14.44;74.31
68556;HTU21D;55544;51.032;5.866;2023-11-19T10:16:13;14.38;74.41
68556;HTU21D;55544;51.032;5.866;2023-11-19T10:18:47;14.35;74.43
68556;HTU21D;55544;51.032;5.866;2023-11-19T10:21:13;14.42;74.18
68556;HTU21D;55544;51.032;5.866;2023-11-19T10:23:55;14.32;74.85
68556;HTU21D;55544;51.032;5.866;2023-11-19T10:26:23;14.23;75.71
68556;HTU21D;55544;51.032;5.866;2023-11-19T10:28:49;14.13;76.34
68556;HTU21D;55544;51.032;5.866;2023-11-19T10:31:17;14.00;76.96
68556;HTU21D;55544;51.032;5.866;2023-11-19T10:33:46;14.18;76.73
68556;HTU21D;55544;51.032;5.866;2023-11-19T10:36:13;14.21;77.07
68556;HTU21D;55544;51.032;5.866;2023-11-19T10:38:39;14.47;76.76
68556;HTU21D;55544;51.032;5.866;2023-11-19T10:41:06;14.55;76.90
68556;HTU21D;55544;51.032;5.866;2023-11-19T10:43:43;14.80;75.86
68556;HTU21D;55544;51.032;5.866;2023-11-19T10:46:11;15.00;75.34
68556;HTU21D;55544;51.032;5.866;2023-11-19T10:48:38;15.17;74.51
68556;HTU21D;55544;51.032;5.866;2023-11-19T10:51:06;15.29;73.56
68556;HTU21D;55544;51.032;5.866;2023-11-19T10:53:37;15.53;70.46
68556;HTU21D;55544;51.032;5.866;2023-11-19T10:56:11;15.45;71.32
68556;HTU21D;55544;51.032;5.866;2023-11-19T10:58:44;15.48;69.83
68556;HTU21D;55544;51.032;5.866;2023-11-19T11:01:19;15.39;70.39
68556;HTU21D;55544;51.032;5.866;2023-11-19T11:03:47;15.25;70.56
68556;HTU21D;55544;51.032;5.866;2023-11-19T11:06:13;15.07;71.06
68556;HTU21D;55544;51.032;5.866;2023-11-19T11:08:39;15.16;71.84
68556;HTU21D;55544;51.032;5.866;2023-11-19T11:11:07;15.22;71.61
68556;HTU21D;55544;51.032;5.866;2023-11-19T11:13:36;15.30;71.93
68556;HTU21D;55544;51.032;5.866;2023-11-19T11:16:05;15.26;71.61
68556;HTU21D;55544;51.032;5.866;2023-11-19T11:18:33;15.02;70.64
68556;HTU21D;55544;51.032;5.866;2023-11-19T11:21:13;14.93;71.92
68556;HTU21D;55544;51.032;5.866;2023-11-19T11:29:35;14.69;73.87
68556;HTU21D;55544;51.032;5.866;2023-11-19T11:32:37;14.72;73.45
68556;HTU21D;55544;51.032;5.866;2023-11-19T11:37:47;14.78;73.26
68556;HTU21D;55544;51.032;5.866;2023-11-19T11:40:16;14.79;73.11
68556;HTU21D;55544;51.032;5.866;2023-11-19T11:42:44;14.77;73.46
68556;HTU21D;55544;51.032;5.866;2023-11-19T11:45:14;14.73;73.92
68556;HTU21D;55544;51.032;5.866;2023-11-19T11:50:18;14.72;73.67
68556;HTU21D;55544;51.032;5.866;2023-11-19T11:55:55;14.75;73.83
68556;HTU21D;55544;51.032;5.866;2023-11-19T11:58:32;14.70;73.02
68556;HTU21D;55544;51.032;5.866;2023-11-19T12:01:01;14.70;73.73
68556;HTU21D;55544;51.032;5.866;2023-11-19T12:03:28;14.66;74.50
68556;HTU21D;55544;51.032;5.866;2023-11-19T12:05:55;14.64;73.92
68556;HTU21D;55544;51.032;5.866;2023-11-19T12:08:26;14.57;74.70
68556;HTU21D;55544;51.032;5.866;2023-11-19T12:10:54;14.58;74.68
68556;HTU21D;55544;51.032;5.866;2023-11-19T12:13:24;14.55;74.92
68556;HTU21D;55544;51.032;5.866;2023-11-19T12:18:29;14.50;75.71
68556;HTU21D;55544;51.032;5.866;2023-11-19T12:20:57;14.47;75.86
68556;HTU21D;55544;51.032;5.866;2023-11-19T12:23:23;14.41;76.14
68556;HTU21D;55544;51.032;5.866;2023-11-19T12:25:49;14.43;76.32
68556;HTU21D;55544;51.032;5.866;2023-11-19T12:28:16;14.41;76.53
68556;HTU21D;55544;51.032;5.866;2023-11-19T12:30:45;14.51;76.19
68556;HTU21D;55544;51.032;5.866;2023-11-19T12:33:12;14.49;76.24
68556;HTU21D;55544;51.032;5.866;2023-11-19T12:35:46;14.42;76.94
68556;HTU21D;55544;51.032;5.866;2023-11-19T12:38:22;14.49;76.70
68556;HTU21D;55544;51.032;5.866;2023-11-19T12:41:10;14.57;76.57
68556;HTU21D;55544;51.032;5.866;2023-11-19T12:43:43;14.64;75.70
68556;HTU21D;55544;51.032;5.866;2023-11-19T12:46:20;14.73;75.55
68556;HTU21D;55544;51.032;5.866;2023-11-19T12:48:47;14.96;74.71
68556;HTU21D;55544;51.032;5.866;2023-11-19T12:51:13;15.13;74.38
68556;HTU21D;55544;51.032;5.866;2023-11-19T12:53:52;15.33;72.99
68556;HTU21D;55544;51.032;5.866;2023-11-19T12:56:20;15.46;72.93
68556;HTU21D;55544;51.032;5.866;2023-11-19T12:58:47;15.57;71.21
68556;HTU21D;55544;51.032;5.866;2023-11-19T13:01:17;15.47;70.95
68556;HTU21D;55544;51.032;5.866;2023-11-19T13:03:45;15.38;70.85
68556;HTU21D;55544;51.032;5.866;2023-11-19T13:06:13;15.30;70.83
68556;HTU21D;55544;51.032;5.866;2023-11-19T13:08:41;15.09;71.72
68556;HTU21D;55544;51.032;5.866;2023-11-19T13:11:08;14.97;72.14
68556;HTU21D;55544;51.032;5.866;2023-11-19T13:13:56;14.92;72.25
68556;HTU21D;55544;51.032;5.866;2023-11-19T13:16:22;14.74;71.68
68556;HTU21D;55544;51.032;5.866;2023-11-19T13:18:48;14.77;72.67
68556;HTU21D;55544;51.032;5.866;2023-11-19T13:21:14;14.64;73.38
68556;HTU21D;55544;51.032;5.866;2023-11-19T13:23:40;14.51;74.73
68556;HTU21D;55544;51.032;5.866;2023-11-19T13:26:05;14.35;75.75
68556;HTU21D;55544;51.032;5.866;2023-11-19T13:28:31;14.30;75.93
68556;HTU21D;55544;51.032;5.866;2023-11-19T13:30:57;14.13;76.66
68556;HTU21D;55544;51.032;5.866;2023-11-19T13:33:23;14.11;76.91
68556;HTU21D;55544;51.032;5.866;2023-11-19T13:35:49;14.10;76.76
68556;HTU21D;55544;51.032;5.866;2023-11-19T13:38:15;14.13;77.24
68556;HTU21D;55544;51.032;5.866;2023-11-19T13:40:41;14.08;76.61
68556;HTU21D;55544;51.032;5.866;2023-11-19T13:43:06;14.10;75.27
68556;HTU21D;55544;51.032;5.866;2023-11-19T13:45:33;14.10;75.42
68556;HTU21D;55544;51.032;5.866;2023-11-19T13:47:58;14.08;75.73
68556;HTU21D;55544;51.032;5.866;2023-11-19T13:50:24;14.14;75.71
68556;HTU21D;55544;51.032;5.866;2023-11-19T13:52:50;14.14;75.56
68556;HTU21D;55544;51.032;5.866;2023-11-19T13:55:16;14.23;75.65
68556;HTU21D;55544;51.032;5.866;2023-11-19T13:57:42;14.41;75.09
68556;HTU21D;55544;51.032;5.866;2023-11-19T14:00:10;14.38;74.54
68556;HTU21D;55544;51.032;5.866;2023-11-19T14:02:39;14.38;74.67
68556;HTU21D;55544;51.032;5.866;2023-11-19T14:05:06;14.47;74.40
68556;HTU21D;55544;51.032;5.866;2023-11-19T14:07:32;14.42;74.14
68556;HTU21D;55544;51.032;5.866;2023-11-19T14:09:58;14.37;74.09
68556;HTU21D;55544;51.032;5.866;2023-11-19T14:12:24;14.33;74.57
68556;HTU21D;55544;51.032;5.866;2023-11-19T14:14:50;14.24;74.40
68556;HTU21D;55544;51.032;5.866;2023-11-19T14:17:15;14.20;74.55
68556;HTU21D;55544;51.032;5.866;2023-11-19T14:19:42;14.26;74.75
68556;HTU21D;55544;51.032;5.866;2023-11-19T14:22:08;14.22;74.86
68556;HTU21D;55544;51.032;5.866;2023-11-19T14:24:34;14.13;75.16
68556;HTU21D;55544;51.032;5.866;2023-11-19T14:27:00;14.15;75.50
68556;HTU21D;55544;51.032;5.866;2023-11-19T14:29:27;14.05;75.92
68556;HTU21D;55544;51.032;5.866;2023-11-19T14:31:55;14.06;75.37
68556;HTU21D;55544;51.032;5.866;2023-11-19T14:34:21;14.06;74.89
68556;HTU21D;55544;51.032;5.866;2023-11-19T14:36:47;13.97;75.56
68556;HTU21D;55544;51.032;5.866;2023-11-19T14:39:13;13.95;75.86
68556;HTU21D;55544;51.032;5.866;2023-11-19T14:41:39;13.98;76.23
68556;HTU21D;55544;51.032;5.866;2023-11-19T14:44:05;13.93;76.57
68556;HTU21D;55544;51.032;5.866;2023-11-19T14:46:31;14.00;76.69
68556;HTU21D;55544;51.032;5.866;2023-11-19T14:48:57;14.11;75.99
68556;HTU21D;55544;51.032;5.866;2023-11-19T14:51:23;14.15;76.05
68556;HTU21D;55544;51.032;5.866;2023-11-19T14:53:48;14.17;75.69
68556;HTU21D;55544;51.032;5.866;2023-11-19T14:56:14;14.21;74.96
68556;HTU21D;55544;51.032;5.866;2023-11-19T14:58:40;14.27;74.76
68556;HTU21D;55544;51.032;5.866;2023-11-19T15:01:10;14.26;74.57
68556;HTU21D;55544;51.032;5.866;2023-11-19T15:03:36;14.20;74.02
68556;HTU21D;55544;51.032;5.866;2023-11-19T15:06:02;14.08;74.77
68556;HTU21D;55544;51.032;5.866;2023-11-19T15:08:28;13.97;74.61
68556;HTU21D;55544;51.032;5.866;2023-11-19T15:10:53;13.92;75.29
68556;HTU21D;55544;51.032;5.866;2023-11-19T15:13:19;13.96;75.12
68556;HTU21D;55544;51.032;5.866;2023-11-19T15:15:45;13.89;75.51
68556;HTU21D;55544;51.032;5.866;2023-11-19T15:18:11;13.89;75.63
68556;HTU21D;55544;51.032;5.866;2023-11-19T15:20:36;13.84;75.96
68556;HTU21D;55544;51.032;5.866;2023-11-19T15:23:02;13.84;75.95
68556;HTU21D;55544;51.032;5.866;2023-11-19T15:25:28;13.81;76.02
68556;HTU21D;55544;51.032;5.866;2023-11-19T15:27:54;13.90;75.28
68556;HTU21D;55544;51.032;5.866;2023-11-19T15:30:20;13.89;74.75
68556;HTU21D;55544;51.032;5.866;2023-11-19T15:32:46;13.90;75.29
68556;HTU21D;55544;51.032;5.866;2023-11-19T15:35:12;13.93;74.40